Time;durP1;ratioP1;P1;durP2;ratioP2;P2;SDS_P1;SDS_P2;PMS_P1;PMS_P2;Temp;Humidity;BMP_temperature;BMP_pressure;BME280_temperature;BME280_humidity;BME280_pressure;Samples;Min_cycle;Max_cycle;Signal;HPM_P1;HPM_P2
2023/07/06 00:01:02;;;;;;;11.70;7.97;;;13.00;99.90;;;;;;4992175;28;20092;-34
2023/07/06 00:03:28;;;;;;;10.38;8.13;;;13.00;99.90;;;;;;4995004;28;20114;-35
2023/07/06 00:05:54;;;;;;;8.07;6.90;;;13.00;99.90;;;;;;4994392;28;20531;-35
2023/07/06 00:08:20;;;;;;;10.27;7.60;;;12.90;99.90;;;;;;4994639;28;20035;-35
2023/07/06 00:10:50;;;;;;;10.13;7.72;;;12.90;99.90;;;;;;4983026;28;20043;-35
2023/07/06 00:13:17;;;;;;;9.82;8.25;;;12.90;99.90;;;;;;4990099;28;20046;-34
2023/07/06 00:15:43;;;;;;;15.98;7.45;;;12.80;99.90;;;;;;4994819;28;20489;-35
2023/07/06 00:18:10;;;;;;;9.18;8.25;;;12.80;99.90;;;;;;4973159;28;20041;-35
2023/07/06 00:20:39;;;;;;;13.30;7.97;;;12.80;99.90;;;;;;4991626;28;20113;-35
2023/07/06 00:23:08;;;;;;;8.63;7.03;;;12.80;99.90;;;;;;4993910;28;20510;-35
2023/07/06 00:25:34;;;;;;;9.93;7.80;;;12.80;99.90;;;;;;4992330;28;20041;-34
2023/07/06 00:28:03;;;;;;;9.60;7.43;;;12.70;99.90;;;;;;4994087;28;20081;-34
2023/07/06 00:30:40;;;;;;;11.23;8.07;;;12.70;99.90;;;;;;4994755;28;20078;-35
2023/07/06 00:33:11;;;;;;;10.63;8.18;;;12.60;99.90;;;;;;4993594;28;20057;-34
2023/07/06 00:35:41;;;;;;;11.73;7.85;;;12.60;99.90;;;;;;4994232;28;20042;-34
2023/07/06 00:38:10;;;;;;;11.45;8.05;;;12.60;99.90;;;;;;4994175;28;20468;-34
2023/07/06 00:40:40;;;;;;;10.70;7.78;;;12.60;99.90;;;;;;4990012;28;20038;-35
2023/07/06 00:43:10;;;;;;;9.57;7.88;;;12.50;99.90;;;;;;4987713;28;20035;-35
2023/07/06 00:45:39;;;;;;;9.40;7.53;;;12.50;99.90;;;;;;4991807;28;20129;-35
2023/07/06 00:48:17;;;;;;;10.35;7.40;;;12.50;99.90;;;;;;4993977;28;20070;-34
2023/07/06 00:50:43;;;;;;;10.65;8.50;;;12.50;99.90;;;;;;4993177;28;20506;-35
2023/07/06 00:53:14;;;;;;;8.48;7.53;;;12.40;99.90;;;;;;4993676;28;20035;-35
2023/07/06 00:55:40;;;;;;;7.47;6.70;;;12.40;99.90;;;;;;4993913;28;20038;-34
2023/07/06 00:58:15;;;;;;;10.20;8.15;;;12.30;99.90;;;;;;4991268;28;20038;-34
2023/07/06 01:00:44;;;;;;;10.68;7.97;;;12.30;99.90;;;;;;4992687;28;20030;-35
2023/07/06 01:03:10;;;;;;;9.20;7.68;;;12.30;99.90;;;;;;4993372;28;20042;-35
2023/07/06 01:05:38;;;;;;;9.35;7.75;;;12.20;99.90;;;;;;4994052;28;20121;-35
2023/07/06 01:08:12;;;;;;;10.50;8.73;;;12.20;99.90;;;;;;4992166;28;20140;-34
2023/07/06 01:10:40;;;;;;;9.02;7.28;;;12.20;99.90;;;;;;4993862;28;20042;-35
2023/07/06 01:13:09;;;;;;;11.90;7.72;;;12.10;99.90;;;;;;4984665;28;20403;-35
2023/07/06 01:15:46;;;;;;;8.23;7.15;;;12.10;99.90;;;;;;4991536;28;20046;-35
2023/07/06 01:18:22;;;;;;;10.55;7.70;;;12.10;99.90;;;;;;4975343;28;20057;-34
2023/07/06 01:21:06;;;;;;;9.73;7.55;;;12.00;99.90;;;;;;4992374;28;20399;-34
2023/07/06 01:24:00;;;;;;;9.35;7.15;;;12.00;99.90;;;;;;4988174;28;20117;-34
2023/07/06 01:26:38;;;;;;;9.82;7.82;;;12.00;99.90;;;;;;4993316;28;20076;-34
2023/07/06 01:29:28;;;;;;;11.15;7.97;;;12.00;99.90;;;;;;4990799;28;20038;-35
2023/07/06 01:32:04;;;;;;;10.35;8.40;;;12.00;99.90;;;;;;4985974;28;20125;-34
2023/07/06 01:34:53;;;;;;;11.10;7.72;;;11.90;99.90;;;;;;4992438;28;20034;-35
2023/07/06 01:37:32;;;;;;;8.60;7.38;;;11.90;99.90;;;;;;4991381;28;20403;-34
2023/07/06 01:39:59;;;;;;;11.05;7.88;;;11.90;99.90;;;;;;4986061;28;20114;-35
2023/07/06 01:42:43;;;;;;;9.80;7.55;;;11.90;99.90;;;;;;4989644;28;20082;-34
2023/07/06 01:45:15;;;;;;;8.05;7.20;;;11.90;99.90;;;;;;4989261;28;20528;-34
2023/07/06 01:47:49;;;;;;;11.63;8.07;;;11.90;99.90;;;;;;4992430;28;20038;-34
2023/07/06 01:50:19;;;;;;;9.68;7.72;;;11.90;99.90;;;;;;4975570;28;20046;-35
2023/07/06 01:53:17;;;;;;;10.45;7.80;;;11.90;99.90;;;;;;4992592;28;20030;-35
2023/07/06 01:56:01;;;;;;;12.55;8.35;;;11.90;99.90;;;;;;4987951;28;20035;-34
2023/07/06 01:58:55;;;;;;;11.40;8.40;;;11.90;99.90;;;;;;4992623;28;20411;-40
2023/07/06 02:01:27;;;;;;;12.60;7.95;;;11.90;99.90;;;;;;4991221;28;20143;-36
2023/07/06 02:03:54;;;;;;;10.07;8.25;;;11.90;99.90;;;;;;4991647;28;20042;-40
2023/07/06 02:06:20;;;;;;;10.95;7.60;;;11.90;99.90;;;;;;4989488;28;20070;-37
2023/07/06 02:08:46;;;;;;;12.27;7.75;;;11.90;99.90;;;;;;4974291;28;20042;-36
2023/07/06 02:11:14;;;;;;;9.80;8.15;;;12.00;99.90;;;;;;4987967;28;20042;-39
2023/07/06 02:13:41;;;;;;;10.77;8.30;;;12.00;99.90;;;;;;4989970;28;20046;-40
2023/07/06 02:16:07;;;;;;;11.20;8.60;;;12.00;99.90;;;;;;4991171;28;20038;-42
2023/07/06 02:18:33;;;;;;;10.30;8.07;;;12.00;99.90;;;;;;4988338;28;20046;-38
2023/07/06 02:21:01;;;;;;;11.30;8.13;;;12.00;99.90;;;;;;4983794;28;20125;-40
2023/07/06 02:23:27;;;;;;;10.98;8.35;;;12.00;99.90;;;;;;4989233;28;20038;-40
2023/07/06 02:25:56;;;;;;;10.15;7.80;;;12.10;99.90;;;;;;4995918;28;20034;-42
2023/07/06 02:28:22;;;;;;;12.73;8.38;;;12.10;99.90;;;;;;4966429;28;20042;-37
2023/07/06 02:30:50;;;;;;;10.85;8.77;;;12.10;99.90;;;;;;4985093;28;20046;-37
2023/07/06 02:33:16;;;;;;;9.00;7.50;;;12.10;99.90;;;;;;4985752;28;20049;-36
2023/07/06 02:35:45;;;;;;;11.52;8.10;;;12.10;99.90;;;;;;4985582;28;20046;-36
2023/07/06 02:38:19;;;;;;;10.80;8.25;;;12.10;99.90;;;;;;4991459;28;20530;-40
2023/07/06 02:40:46;;;;;;;;;;;12.10;99.90;;;;;;4991165;28;20431;-39
2023/07/06 02:43:12;;;;;;;11.20;8.18;;;12.10;99.90;;;;;;4986515;28;20361;-38
2023/07/06 02:45:38;;;;;;;10.10;8.02;;;12.10;99.90;;;;;;4990738;28;20403;-39
2023/07/06 02:48:04;;;;;;;12.20;9.30;;;12.10;99.90;;;;;;4988064;28;20138;-39
2023/07/06 02:50:31;;;;;;;12.80;8.50;;;12.10;99.90;;;;;;4990362;28;20043;-37
2023/07/06 02:52:57;;;;;;;12.00;8.52;;;12.10;99.90;;;;;;4990181;28;20045;-37
2023/07/06 02:55:23;;;;;;;14.65;8.48;;;12.10;99.90;;;;;;4990783;28;20030;-35
2023/07/06 02:57:50;;;;;;;14.88;9.68;;;12.10;99.90;;;;;;4973266;28;20067;-39
2023/07/06 03:00:17;;;;;;;10.95;8.77;;;12.10;99.90;;;;;;4984434;28;20499;-38
2023/07/06 03:02:49;;;;;;;10.52;8.70;;;12.10;99.90;;;;;;4978982;28;20101;-37
2023/07/06 03:05:22;;;;;;;12.00;8.67;;;12.10;99.90;;;;;;4978903;28;20042;-39
2023/07/06 03:07:51;;;;;;;10.93;8.50;;;12.10;99.90;;;;;;4984861;28;21423;-40
2023/07/06 03:10:19;;;;;;;9.55;8.00;;;12.10;99.90;;;;;;4990703;28;20357;-39
2023/07/06 03:12:45;;;;;;;11.82;9.07;;;12.10;99.90;;;;;;4985421;28;20504;-39
2023/07/06 03:15:15;;;;;;;10.55;8.00;;;12.10;99.90;;;;;;4985138;28;20045;-36
2023/07/06 03:17:42;;;;;;;10.10;8.45;;;12.10;99.90;;;;;;4987993;28;20049;-38
2023/07/06 03:20:15;;;;;;;11.23;9.23;;;12.10;99.90;;;;;;4989723;28;20038;-36
2023/07/06 03:22:45;;;;;;;12.93;9.25;;;12.10;99.90;;;;;;4990517;28;20050;-36
2023/07/06 03:25:34;;;;;;;13.63;8.93;;;12.10;99.90;;;;;;4986026;28;20399;-38
2023/07/06 03:28:00;;;;;;;14.93;9.18;;;12.10;99.90;;;;;;4990413;28;20367;-36
2023/07/06 03:30:29;;;;;;;10.77;8.05;;;12.10;99.90;;;;;;4977144;28;20039;-38
2023/07/06 03:32:55;;;;;;;12.77;8.82;;;12.10;99.90;;;;;;4990758;28;20038;-37
2023/07/06 03:35:25;;;;;;;12.23;9.32;;;12.10;99.90;;;;;;4991233;28;20044;-37
2023/07/06 03:37:53;;;;;;;10.95;8.65;;;12.10;99.90;;;;;;5002121;28;20495;-41
2023/07/06 03:40:20;;;;;;;12.27;9.15;;;12.10;99.90;;;;;;4994053;28;20039;-40
2023/07/06 03:42:47;;;;;;;11.02;9.10;;;12.10;99.90;;;;;;4994326;28;20046;-37
2023/07/06 03:45:14;;;;;;;11.10;8.98;;;12.10;99.90;;;;;;4994277;28;20361;-37
2023/07/06 03:47:45;;;;;;;15.25;9.48;;;12.10;99.90;;;;;;4994807;28;20491;-38
2023/07/06 03:50:14;;;;;;;12.43;9.50;;;12.10;99.90;;;;;;4989788;28;20046;-42
2023/07/06 03:52:40;;;;;;;14.35;9.70;;;12.10;99.90;;;;;;4988777;28;20045;-35
2023/07/06 03:55:12;;;;;;;13.73;9.60;;;12.10;99.90;;;;;;4993775;28;20491;-36
2023/07/06 03:57:39;;;;;;;14.35;9.25;;;12.20;99.90;;;;;;4988688;28;20110;-42
2023/07/06 04:00:13;;;;;;;13.27;8.73;;;12.20;99.90;;;;;;4994589;28;20045;-36
2023/07/06 04:02:39;;;;;;;12.07;9.45;;;12.20;99.90;;;;;;4990762;28;20073;-37
2023/07/06 04:05:04;;;;;;;12.88;9.55;;;12.30;99.90;;;;;;4986897;28;20113;-40
2023/07/06 04:07:30;;;;;;;13.93;9.52;;;12.30;99.90;;;;;;4989058;28;20038;-39
2023/07/06 04:09:56;;;;;;;14.25;10.60;;;12.40;99.90;;;;;;4990748;28;20531;-36
2023/07/06 04:12:22;;;;;;;15.05;9.15;;;12.40;99.90;;;;;;4989325;28;20455;-39
2023/07/06 04:14:47;;;;;;;14.10;9.93;;;12.40;99.90;;;;;;4993653;28;20064;-42
2023/07/06 04:17:16;;;;;;;15.02;10.05;;;12.50;99.90;;;;;;4991580;28;20425;-38
2023/07/06 04:19:42;;;;;;;14.43;9.88;;;12.50;99.90;;;;;;4993569;28;20097;-39
2023/07/06 04:22:08;;;;;;;13.50;9.85;;;12.60;99.90;;;;;;4994561;28;20037;-38
2023/07/06 04:24:34;;;;;;;14.98;9.90;;;12.60;99.90;;;;;;4988866;28;20042;-44
2023/07/06 04:27:00;;;;;;;12.13;9.48;;;12.70;99.90;;;;;;4987908;28;20049;-42
2023/07/06 04:29:29;;;;;;;16.58;10.00;;;12.70;99.90;;;;;;4970896;28;20369;-39
2023/07/06 04:31:55;;;;;;;19.33;10.98;;;12.80;99.90;;;;;;4988641;28;20046;-37
2023/07/06 04:34:24;;;;;;;13.95;9.98;;;12.80;99.90;;;;;;4989448;28;20039;-41
2023/07/06 04:36:50;;;;;;;16.17;11.60;;;12.90;99.90;;;;;;4992411;28;20034;-37
2023/07/06 04:39:15;;;;;;;13.93;10.90;;;12.90;99.90;;;;;;4992592;28;20122;-36
2023/07/06 04:41:43;;;;;;;16.00;11.10;;;12.90;99.90;;;;;;4992212;28;20046;-43
2023/07/06 04:44:09;;;;;;;17.88;11.45;;;12.90;99.90;;;;;;4992651;28;20042;-37
2023/07/06 04:46:36;;;;;;;13.30;10.48;;;12.90;99.90;;;;;;4974139;28;20531;-41
2023/07/06 04:49:02;;;;;;;17.45;11.40;;;12.90;99.90;;;;;;4991301;28;20038;-36
2023/07/06 04:51:28;;;;;;;15.00;11.52;;;12.90;99.90;;;;;;4984386;28;20049;-36
2023/07/06 04:53:54;;;;;;;16.95;11.18;;;12.80;99.90;;;;;;4989753;28;20038;-36
2023/07/06 04:56:21;;;;;;;15.70;11.95;;;12.90;99.90;;;;;;4990738;28;20034;-36
2023/07/06 04:58:47;;;;;;;17.58;12.80;;;12.90;99.90;;;;;;4972923;28;20137;-40
2023/07/06 05:01:14;;;;;;;20.55;11.88;;;12.90;99.90;;;;;;4987401;28;20118;-39
2023/07/06 05:03:40;;;;;;;16.67;12.13;;;13.00;99.90;;;;;;4981841;28;20473;-37
2023/07/06 05:06:12;;;;;;;16.90;12.27;;;13.10;99.90;;;;;;4990397;28;20066;-38
2023/07/06 05:08:39;;;;;;;17.48;12.85;;;13.10;99.90;;;;;;4990346;28;20144;-40
2023/07/06 05:11:05;;;;;;;19.67;12.60;;;13.20;99.90;;;;;;4985992;28;20041;-41
2023/07/06 05:13:32;;;;;;;16.48;13.07;;;13.30;99.90;;;;;;4987258;28;20034;-41
2023/07/06 05:15:58;;;;;;;19.30;12.82;;;13.40;99.90;;;;;;4984618;28;20081;-40
2023/07/06 05:18:23;;;;;;;21.15;12.80;;;13.50;99.90;;;;;;4978892;28;20062;-41
2023/07/06 05:20:51;;;;;;;17.63;12.68;;;13.50;99.90;;;;;;4982823;28;20034;-43
2023/07/06 05:23:18;;;;;;;22.27;13.05;;;13.70;99.90;;;;;;4987944;28;20038;-39
2023/07/06 05:25:44;;;;;;;18.60;12.60;;;13.70;99.90;;;;;;4972519;28;20096;-39
2023/07/06 05:28:13;;;;;;;18.92;12.48;;;13.80;99.90;;;;;;4989543;28;20038;-36
2023/07/06 05:30:41;;;;;;;15.80;11.88;;;13.90;99.90;;;;;;4985031;28;20096;-40
2023/07/06 05:33:07;;;;;;;15.32;11.98;;;14.00;99.90;;;;;;4985097;28;20738;-43
2023/07/06 05:35:33;;;;;;;14.95;12.30;;;14.10;99.90;;;;;;4973249;28;20118;-40
2023/07/06 05:38:02;;;;;;;17.15;11.77;;;14.30;99.90;;;;;;4984571;28;20038;-41
2023/07/06 05:40:28;;;;;;;19.45;12.25;;;14.40;99.90;;;;;;4983533;28;20049;-38
2023/07/06 05:42:54;;;;;;;17.23;11.23;;;14.50;99.90;;;;;;4976235;28;20538;-43
2023/07/06 05:45:20;;;;;;;16.83;11.30;;;14.60;99.90;;;;;;4978787;28;20530;-39
2023/07/06 05:47:47;;;;;;;16.60;10.85;;;14.70;99.90;;;;;;4979815;28;20503;-36
2023/07/06 05:50:13;;;;;;;21.63;12.40;;;14.70;99.90;;;;;;4980820;28;20101;-36
2023/07/06 05:52:40;;;;;;;17.42;11.23;;;14.80;99.90;;;;;;4974949;28;20443;-36
2023/07/06 05:55:07;;;;;;;16.27;11.75;;;14.90;99.90;;;;;;4963781;28;20122;-41
2023/07/06 05:57:32;;;;;;;19.98;11.65;;;15.00;99.90;;;;;;4983620;28;20034;-41
2023/07/06 05:59:58;;;;;;;18.05;11.55;;;15.10;99.90;;;;;;4978657;28;20034;-41
2023/07/06 06:02:26;;;;;;;17.83;11.57;;;15.10;99.90;;;;;;4972915;28;20520;-43
2023/07/06 06:04:52;;;;;;;16.65;11.30;;;15.20;99.90;;;;;;4985427;28;20046;-37
2023/07/06 06:07:22;;;;;;;16.90;11.55;;;15.30;99.90;;;;;;4972346;28;20404;-36
2023/07/06 06:09:48;;;;;;;14.63;10.45;;;15.30;99.90;;;;;;4987568;28;20071;-40
2023/07/06 06:12:18;;;;;;;14.82;10.65;;;15.30;99.90;;;;;;4981109;28;20062;-36
2023/07/06 06:14:48;;;;;;;15.80;10.30;;;15.40;99.90;;;;;;4981831;28;20034;-42
2023/07/06 06:17:18;;;;;;;14.88;10.05;;;15.40;99.90;;;;;;4988745;28;20042;-38
2023/07/06 06:19:45;;;;;;;17.20;10.00;;;15.50;99.90;;;;;;4963690;28;20050;-36
2023/07/06 06:22:13;;;;;;;12.73;9.95;;;15.60;99.90;;;;;;4987782;28;20157;-41
2023/07/06 06:24:39;;;;;;;20.10;11.55;;;15.70;99.90;;;;;;4988656;28;20038;-42
2023/07/06 06:27:06;;;;;;;17.70;10.13;;;15.80;99.90;;;;;;4987355;28;20034;-42
2023/07/06 06:29:36;;;;;;;18.10;10.57;;;15.90;99.90;;;;;;4966695;28;20046;-38
2023/07/06 06:32:03;;;;;;;14.85;10.15;;;16.10;99.90;;;;;;4987599;28;20042;-37
2023/07/06 06:34:28;;;;;;;20.95;10.85;;;16.20;99.90;;;;;;4986991;28;20042;-42
2023/07/06 06:36:57;;;;;;;21.23;10.68;;;16.20;99.90;;;;;;4948259;28;20034;-38
2023/07/06 06:39:24;;;;;;;19.88;11.38;;;16.20;99.90;;;;;;4967166;28;20035;-37
2023/07/06 06:41:55;;;;;;;15.52;9.48;;;16.20;99.90;;;;;;4988593;28;20072;-39
2023/07/06 06:44:21;;;;;;;16.10;10.63;;;16.20;99.90;;;;;;4992320;28;21343;-36
2023/07/06 06:46:47;;;;;;;14.98;9.95;;;16.30;99.90;;;;;;4984660;28;20400;-39
2023/07/06 06:49:16;;;;;;;13.98;9.80;;;16.40;99.90;;;;;;4983235;28;20407;-37
2023/07/06 06:51:42;;;;;;;16.35;10.32;;;16.40;99.90;;;;;;4988484;28;20235;-43
2023/07/06 06:54:10;;;;;;;14.43;9.90;;;16.50;99.90;;;;;;4966854;28;20447;-42
2023/07/06 06:56:40;;;;;;;19.70;10.93;;;16.60;99.90;;;;;;4982238;28;20038;-42
2023/07/06 06:59:07;;;;;;;18.27;10.13;;;16.60;99.90;;;;;;4988054;28;20451;-42
2023/07/06 07:01:33;;;;;;;20.58;11.32;;;16.60;99.90;;;;;;4987842;28;20125;-38
2023/07/06 07:04:00;;;;;;;18.60;10.75;;;16.70;99.90;;;;;;4988717;28;20385;-39
2023/07/06 07:06:28;;;;;;;20.23;11.75;;;16.90;99.90;;;;;;4970638;28;20053;-36
2023/07/06 07:08:57;;;;;;;16.77;11.75;;;17.20;99.90;;;;;;4980503;28;20038;-43
2023/07/06 07:11:23;;;;;;;14.73;10.77;;;17.30;99.90;;;;;;4974506;28;20489;-38
2023/07/06 07:13:51;;;;;;;18.88;10.93;;;17.60;99.90;;;;;;4987895;28;20027;-37
2023/07/06 07:16:19;;;;;;;19.88;10.20;;;17.60;99.90;;;;;;4970898;28;20074;-37
2023/07/06 07:18:45;;;;;;;12.05;9.35;;;17.60;99.90;;;;;;4992912;28;20048;-41
2023/07/06 07:21:12;;;;;;;19.65;10.60;;;17.60;99.90;;;;;;4990002;28;20042;-37
2023/07/06 07:23:47;;;;;;;15.65;10.45;;;17.50;99.90;;;;;;4990509;28;20047;-39
2023/07/06 07:26:18;;;;;;;15.52;10.13;;;17.50;99.90;;;;;;4975116;28;20038;-42
2023/07/06 07:28:48;;;;;;;17.30;10.18;;;17.70;99.90;;;;;;4991788;28;20439;-40
2023/07/06 07:31:17;;;;;;;15.35;10.10;;;17.90;99.90;;;;;;4984626;28;20046;-39
2023/07/06 07:33:44;;;;;;;19.75;11.35;;;18.20;99.90;;;;;;4987671;28;20046;-40
2023/07/06 07:36:17;;;;;;;17.17;12.45;;;18.30;99.90;;;;;;4983111;28;20039;-39
2023/07/06 07:38:43;;;;;;;18.40;13.88;;;18.40;99.90;;;;;;4988893;28;20150;-39
2023/07/06 07:41:10;;;;;;;19.27;15.57;;;18.40;99.90;;;;;;4982995;28;20053;-42
2023/07/06 07:43:41;;;;;;;19.58;16.08;;;18.60;99.90;;;;;;4986591;28;20038;-40
2023/07/06 07:46:09;;;;;;;20.77;16.45;;;18.50;99.90;;;;;;4984582;28;20046;-42
2023/07/06 07:48:40;;;;;;;23.52;17.45;;;18.70;99.90;;;;;;4987566;28;20373;-40
2023/07/06 07:51:08;;;;;;;20.10;15.35;;;18.80;99.90;;;;;;4983527;28;20154;-37
2023/07/06 07:53:37;;;;;;;18.27;14.52;;;19.10;99.90;;;;;;4986688;28;20327;-40
2023/07/06 07:56:06;;;;;;;19.95;14.13;;;19.10;99.90;;;;;;4988057;28;20451;-40
2023/07/06 07:58:34;;;;;;;18.20;14.40;;;18.80;99.90;;;;;;4980977;28;20102;-35
2023/07/06 08:01:01;;;;;;;17.13;14.32;;;18.80;99.90;;;;;;4983363;28;20043;-42
2023/07/06 08:03:27;;;;;;;15.88;13.82;;;18.70;99.90;;;;;;4986164;28;20117;-38
2023/07/06 08:05:54;;;;;;;14.20;12.70;;;18.70;99.90;;;;;;4989503;28;20117;-37
2023/07/06 08:08:22;;;;;;;20.10;13.75;;;18.60;99.90;;;;;;4984710;28;20468;-41
2023/07/06 08:10:49;;;;;;;13.60;12.18;;;18.60;99.90;;;;;;4989393;28;20045;-42
2023/07/06 08:13:16;;;;;;;14.60;12.00;;;18.80;99.90;;;;;;4984692;28;20101;-40
2023/07/06 08:15:44;;;;;;;17.42;12.07;;;19.00;99.90;;;;;;4989125;28;20459;-42
2023/07/06 08:18:10;;;;;;;18.77;12.45;;;19.40;99.90;;;;;;4989608;28;20049;-43
2023/07/06 08:20:36;;;;;;;14.82;11.23;;;19.60;99.90;;;;;;4989441;28;20034;-43
2023/07/06 08:23:06;;;;;;;12.60;9.30;;;19.70;99.90;;;;;;4992185;28;20035;-40
2023/07/06 08:25:40;;;;;;;13.77;10.30;;;19.80;99.90;;;;;;4992959;28;20042;-36
2023/07/06 08:28:07;;;;;;;14.25;9.82;;;20.00;99.90;;;;;;4986823;28;20061;-40
2023/07/06 08:30:33;;;;;;;15.80;9.48;;;20.10;99.90;;;;;;4988639;28;20038;-38
2023/07/06 08:33:00;;;;;;;22.10;12.23;;;20.30;99.90;;;;;;4975042;28;20082;-39
2023/07/06 08:35:28;;;;;;;12.63;10.52;;;20.50;99.90;;;;;;4987624;28;20266;-41
2023/07/06 08:37:53;;;;;;;13.00;9.90;;;20.50;99.90;;;;;;4979325;28;20042;-37
2023/07/06 08:40:23;;;;;;;14.45;10.20;;;20.70;99.90;;;;;;4983905;28;20042;-40
2023/07/06 08:42:49;;;;;;;12.13;9.70;;;20.70;99.90;;;;;;4985660;28;20051;-40
2023/07/06 08:45:21;;;;;;;20.33;11.98;;;21.10;99.90;;;;;;4991884;28;20492;-40
2023/07/06 08:47:48;;;;;;;13.05;9.60;;;21.40;99.90;;;;;;4992876;28;20538;-41
2023/07/06 08:50:20;;;;;;;13.65;8.70;;;21.50;99.90;;;;;;4992649;28;20053;-40
2023/07/06 08:52:46;;;;;;;12.13;8.73;;;21.50;99.90;;;;;;4991384;28;20621;-38
2023/07/06 08:55:15;;;;;;;12.52;8.93;;;21.50;99.90;;;;;;4991726;28;20030;-39
2023/07/06 08:57:44;;;;;;;12.68;8.30;;;21.40;99.90;;;;;;4990307;28;20046;-40
2023/07/06 09:00:19;;;;;;;10.68;9.00;;;21.50;99.90;;;;;;4991272;28;20042;-40
2023/07/06 09:02:46;;;;;;;11.48;7.97;;;21.70;99.90;;;;;;4973471;28;20522;-40
2023/07/06 09:05:15;;;;;;;13.18;7.15;;;21.80;99.90;;;;;;4975529;28;20449;-39
2023/07/06 09:07:44;;;;;;;11.05;7.43;;;21.80;99.90;;;;;;4991766;28;20046;-40
2023/07/06 09:10:17;;;;;;;12.48;7.15;;;21.80;99.90;;;;;;4992604;28;20117;-43
2023/07/06 09:12:43;;;;;;;11.00;7.22;;;22.00;99.90;;;;;;4985270;28;20389;-37
2023/07/06 09:15:09;;;;;;;8.57;6.68;;;22.00;99.90;;;;;;4974997;28;20034;-39
2023/07/06 09:17:47;;;;;;;11.00;6.28;;;21.90;99.90;;;;;;4991560;28;20049;-39
2023/07/06 09:20:14;;;;;;;6.72;5.18;;;21.70;99.90;;;;;;4986939;28;20042;-36
2023/07/06 09:22:41;;;;;;;9.13;5.45;;;21.40;99.90;;;;;;4991225;28;20399;-40
2023/07/06 09:25:17;;;;;;;10.57;5.38;;;21.20;99.90;;;;;;4975101;28;20081;-40
2023/07/06 09:27:56;;;;;;;9.27;4.80;;;21.00;99.90;;;;;;4992877;28;20046;-39
2023/07/06 09:30:29;;;;;;;7.43;5.30;;;20.80;99.90;;;;;;4992755;28;20042;-42
2023/07/06 09:33:00;;;;;;;10.55;5.78;;;20.70;99.90;;;;;;4988984;28;20479;-38
2023/07/06 09:35:29;;;;;;;7.32;5.10;;;21.00;99.90;;;;;;4959861;28;20058;-39
2023/07/06 09:37:55;;;;;;;8.70;4.75;;;21.40;99.90;;;;;;4992113;28;20034;-37
2023/07/06 09:40:29;;;;;;;5.70;4.68;;;21.70;99.90;;;;;;4975024;28;20046;-41
2023/07/06 09:42:54;;;;;;;5.55;4.55;;;21.70;99.90;;;;;;4990767;28;20050;-38
2023/07/06 09:45:27;;;;;;;8.18;4.22;;;21.60;99.90;;;;;;4989673;28;20138;-41
2023/07/06 09:48:05;;;;;;;7.13;4.03;;;21.40;99.90;;;;;;4991898;28;20038;-40
2023/07/06 09:50:38;;;;;;;7.90;4.90;;;21.50;99.90;;;;;;4992456;28;20483;-42
2023/07/06 09:53:07;;;;;;;5.72;4.30;;;21.50;99.90;;;;;;4992204;28;20038;-44
2023/07/06 09:55:35;;;;;;;6.32;3.70;;;21.70;99.90;;;;;;4998910;28;20117;-39
2023/07/06 09:58:02;;;;;;;3.60;3.30;;;22.20;99.90;;;;;;4991354;28;20030;-37
2023/07/06 10:00:39;;;;;;;3.85;2.85;;;22.70;99.90;;;;;;4992411;28;20081;-39
2023/07/06 10:03:27;;;;;;;3.63;2.30;;;23.00;99.90;;;;;;4985419;28;20113;-37
2023/07/06 10:05:59;;;;;;;4.90;2.47;;;23.30;99.90;;;;;;4991569;28;20038;-42
2023/07/06 10:08:36;;;;;;;4.85;2.80;;;23.60;99.90;;;;;;4990994;28;20084;-43
2023/07/06 10:11:20;;;;;;;3.70;2.67;;;23.10;99.50;;;;;;4987221;28;20057;-37
2023/07/06 10:14:01;;;;;;;6.03;2.95;;;22.90;99.90;;;;;;4984047;28;20039;-41
2023/07/06 10:16:47;;;;;;;4.25;2.60;;;22.80;99.90;;;;;;4963608;28;20496;-42
2023/07/06 10:19:20;;;;;;;9.50;3.78;;;22.50;99.90;;;;;;4986265;28;20377;-42
2023/07/06 10:21:59;;;;;;;6.75;2.80;;;22.30;99.90;;;;;;4985909;28;20035;-39
2023/07/06 10:24:51;;;;;;;6.72;3.30;;;22.10;99.90;;;;;;4989796;28;20042;-40
2023/07/06 10:27:22;;;;;;;5.78;2.83;;;22.10;99.90;;;;;;4990429;28;20411;-43
2023/07/06 10:29:58;;;;;;;6.85;3.50;;;22.00;99.90;;;;;;4987996;28;20109;-38
2023/07/06 10:32:34;;;;;;;6.03;3.30;;;22.00;99.90;;;;;;4991262;28;20060;-40
2023/07/06 10:35:19;;;;;;;7.85;3.70;;;22.60;99.90;;;;;;4986113;28;20502;-41
2023/07/06 10:37:47;;;;;;;4.22;2.97;;;23.10;99.90;;;;;;4983764;28;20049;-40
2023/07/06 10:40:24;;;;;;;6.47;3.40;;;23.80;99.90;;;;;;4971504;28;20298;-39
2023/07/06 10:43:11;;;;;;;7.68;3.58;;;23.90;99.90;;;;;;4995994;28;20039;-43
2023/07/06 10:45:56;;;;;;;7.43;3.72;;;23.80;99.90;;;;;;4972469;28;20038;-40
2023/07/06 10:48:24;;;;;;;5.40;3.47;;;23.60;96.90;;;;;;4984313;28;20046;-41
2023/07/06 10:50:52;;;;;;;6.60;2.90;;;23.80;99.40;;;;;;4982760;28;20034;-43
2023/07/06 10:53:41;;;;;;;3.75;2.60;;;24.10;99.20;;;;;;4990371;28;20511;-43
2023/07/06 10:56:22;;;;;;;3.90;2.10;;;24.30;93.10;;;;;;4985145;28;20085;-41
2023/07/06 10:59:02;;;;;;;5.25;2.38;;;24.50;93.50;;;;;;4989464;28;20031;-38
2023/07/06 11:01:46;;;;;;;3.97;2.22;;;24.80;90.90;;;;;;4989826;28;20038;-44
2023/07/06 11:04:39;;;;;;;4.03;1.63;;;25.00;93.60;;;;;;4977458;28;20081;-42
2023/07/06 11:07:09;;;;;;;3.10;2.10;;;25.00;83.80;;;;;;4990975;28;20038;-42
2023/07/06 11:10:12;;;;;;;5.00;2.00;;;24.70;89.30;;;;;;4987202;28;20131;-40
2023/07/06 11:13:02;;;;;;;5.07;2.40;;;24.60;83.30;;;;;;4989369;28;20125;-41
2023/07/06 11:15:41;;;;;;;3.90;2.38;;;24.10;85.20;;;;;;4989885;28;20040;-40
2023/07/06 11:18:40;;;;;;;3.08;1.90;;;24.00;83.90;;;;;;4990448;28;20072;-38
2023/07/06 11:21:45;;;;;;;4.35;2.17;;;23.60;79.80;;;;;;4984896;28;20031;-40
2023/07/06 11:24:16;;;;;;;3.78;1.88;;;23.60;85.60;;;;;;4988981;28;20570;-42
2023/07/06 11:26:48;;;;;;;2.83;1.88;;;23.40;85.80;;;;;;4987072;28;20065;-38
2023/07/06 11:29:15;;;;;;;3.35;1.85;;;23.70;85.10;;;;;;4956780;28;20043;-40
2023/07/06 11:31:49;;;;;;;4.60;2.22;;;24.00;84.40;;;;;;4988368;28;20435;-43
2023/07/06 11:34:52;;;;;;;6.50;1.90;;;24.30;83.90;;;;;;4966317;28;20042;-41
2023/07/06 11:37:30;;;;;;;3.35;1.80;;;25.00;86.10;;;;;;4977938;28;20057;-38
2023/07/06 11:40:10;;;;;;;2.97;1.98;;;25.10;81.90;;;;;;4984956;28;20093;-40
2023/07/06 11:42:39;;;;;;;4.30;1.92;;;25.30;69.80;;;;;;4987537;28;20042;-40
2023/07/06 11:45:28;;;;;;;4.40;2.10;;;25.30;75.10;;;;;;4990024;28;20511;-38
2023/07/06 11:48:36;;;;;;;3.42;1.63;;;25.60;73.20;;;;;;4989499;28;20034;-41
2023/07/06 11:51:05;;;;;;;5.35;2.30;;;25.80;73.80;;;;;;4983005;28;20046;-40
2023/07/06 11:53:54;;;;;;;4.93;2.45;;;25.60;73.80;;;;;;4971890;28;20061;-40
2023/07/06 11:56:49;;;;;;;3.03;2.22;;;25.20;73.70;;;;;;4968651;28;20049;-43
2023/07/06 11:59:37;;;;;;;2.10;1.73;;;24.70;74.30;;;;;;4989559;28;20550;-38
2023/07/06 12:02:27;;;;;;;3.63;1.90;;;24.50;74.40;;;;;;4992553;28;20042;-38
2023/07/06 12:04:52;;;;;;;4.47;1.80;;;24.40;76.00;;;;;;4993086;28;20480;-41
2023/07/06 12:07:30;;;;;;;2.55;1.90;;;24.80;75.60;;;;;;4993216;28;20052;-37
2023/07/06 12:10:02;;;;;;;3.30;2.15;;;24.90;73.00;;;;;;4993739;28;20041;-41
2023/07/06 12:12:30;;;;;;;3.85;1.67;;;25.20;72.90;;;;;;4989386;28;20050;-42
2023/07/06 12:14:58;;;;;;;5.32;2.40;;;25.60;74.40;;;;;;4986118;28;20510;-42
2023/07/06 12:17:23;;;;;;;3.92;1.98;;;26.30;74.30;;;;;;4993255;28;20634;-38
2023/07/06 12:19:58;;;;;;;7.22;1.80;;;26.80;73.60;;;;;;4991446;28;20121;-41
2023/07/06 12:22:24;;;;;;;3.92;1.90;;;26.80;69.40;;;;;;4993567;28;20510;-39
2023/07/06 12:24:55;;;;;;;4.00;2.10;;;26.40;67.40;;;;;;4993985;28;20041;-39
2023/07/06 12:27:21;;;;;;;5.03;2.22;;;26.40;65.40;;;;;;4993366;28;20078;-41
2023/07/06 12:29:47;;;;;;;2.35;1.83;;;26.50;67.20;;;;;;4990741;28;20073;-41
2023/07/06 12:32:19;;;;;;;4.50;2.47;;;26.70;65.50;;;;;;4968866;28;20039;-41
2023/07/06 12:34:51;;;;;;;8.07;2.25;;;26.30;64.20;;;;;;4992148;28;20499;-38
2023/07/06 12:37:19;;;;;;;3.45;2.10;;;26.40;63.80;;;;;;4988911;28;20037;-39
2023/07/06 12:39:48;;;;;;;2.78;2.03;;;26.20;63.70;;;;;;4976128;28;20050;-39
2023/07/06 12:42:16;;;;;;;2.92;2.33;;;25.80;62.80;;;;;;4988575;28;20046;-40
2023/07/06 12:44:44;;;;;;;5.80;3.00;;;25.40;64.10;;;;;;4993190;28;20499;-39
2023/07/06 12:47:37;;;;;;;6.90;3.38;;;24.70;65.20;;;;;;4993205;28;20038;-40
2023/07/06 12:50:05;;;;;;;4.72;2.88;;;24.60;67.60;;;;;;4993424;28;20507;-39
2023/07/06 12:52:32;;;;;;;8.80;3.80;;;24.40;69.30;;;;;;4988586;28;20093;-43
2023/07/06 12:54:58;;;;;;;6.22;4.20;;;24.20;70.10;;;;;;4992518;28;20034;-44
2023/07/06 12:57:29;;;;;;;4.93;3.53;;;23.80;70.50;;;;;;4987056;28;20454;-44